ADDS METAR Data INFO
IDs: Format: Raw Decoded Include TAF

Data at: 0839 UTC 21 Oct 2017

KGNT 210835Z AUTO 36005G14KT 10SM CLR 11/00 A2998 RMK AO2 T01141001
KGNT 210815Z AUTO 02008G15KT 10SM CLR 12/01 A2997 RMK AO2 T01180008
KGNT 210755Z AUTO 36007G16KT 10SM CLR 12/01 A2997 RMK AO2 T01190011
KGNT 210735Z AUTO 31011G21KT 290V020 10SM CLR 13/01 A2997 RMK AO2 T01260012
KGNT 210715Z AUTO 00000KT 10SM CLR 13/01 A2995 RMK AO2 T01300009
KGNT 210655Z AUTO 28010G24KT 10SM CLR 13/01 A2994 RMK AO2 T01310008 402220028
KGNT 210635Z AUTO 29012G25KT 230V340 10SM CLR 13/00 A2994 RMK AO2 T01320004
KGNT 210615Z AUTO 29007G20KT 10SM CLR 14/00 A2993 RMK AO2 T01350002
KGNT 210555Z AUTO 27011G21KT 250V310 10SM CLR 14/01 A2993 RMK AO2 T01370005 10195 20120
KGNT 210535Z AUTO 26004KT 10SM CLR 14/00 A2994 RMK AO2 T01400000
KGNT 210515Z AUTO 03005KT 10SM CLR 13/M02 A2993 RMK AO2 T01271016
KGNT 210455Z AUTO 36004G16KT 10SM CLR 14/M02 A2992 RMK AO2 T01441017
KGNT 210435Z AUTO 00000KT 10SM CLR 15/M02 A2990 RMK AO2 T01501016
KGNT 210415Z AUTO 24011G21KT 200V270 10SM CLR 15/M02 A2990 RMK AO2 T01531020
KGNT 210355Z AUTO 24014G30KT 10SM CLR 16/M03 A2988 RMK AO2 T01551026
KGNT 210335Z AUTO 22009KT 180V280 10SM CLR 14/M03 A2989 RMK AO2 T01431030
KGNT 210315Z AUTO 13004KT 10SM CLR 13/M02 A2989 RMK AO2 T01331024
KGNT 210255Z AUTO 15004KT 10SM CLR 12/M01 A2989 RMK AO2 T01241008
KGNT 210235Z AUTO 21004KT 10SM CLR 15/M02 A2990 RMK AO2 T01471023
KGNT 210215Z AUTO 13005KT 10SM CLR 12/00 A2990 RMK AO2 T01211003
KGNT 210155Z AUTO 15003KT 10SM CLR 15/M02 A2989 RMK AO2 T01511020
KGNT 210135Z AUTO 00000KT 10SM CLR 14/M02 A2989 RMK AO2 T01421017
KGNT 210115Z AUTO 12005KT 10SM CLR 15/M01 A2988 RMK AO2 T01451010
KGNT 210055Z AUTO 00000KT 10SM CLR 17/M03 A2988 RMK AO2 T01691026
KGNT 210035Z AUTO 00000KT 10SM CLR 18/M03 A2989 RMK AO2 T01791026
KGNT 210015Z AUTO 25005G16KT 10SM CLR 19/M03 A2990 RMK AO2 T01861030
KGNT 202355Z AUTO 26016G21KT 210V290 10SM CLR 20/M03 A2990 RMK AO2 T01951028 10222 20172
KGNT 202335Z AUTO 25012G18KT 10SM CLR 20/M03 A2991 RMK AO2 T02021029
KGNT 202315Z AUTO 25013G26KT 10SM CLR 20/M03 A2991 RMK AO2 T02041034
KGNT 202255Z AUTO 26010G21KT 10SM CLR 21/M03 A2991 RMK AO2 T02081034
KGNT 202235Z AUTO 25017G28KT 10SM CLR 21/M04 A2992 RMK AO2 T02071036
KGNT 202215Z AUTO 24015G23KT 10SM CLR 22/M03 A2993 RMK AO2 T02151029
KGNT 202155Z AUTO 24011G25KT 10SM CLR 21/M03 A2993 RMK AO2 T02121034
KGNT 202135Z AUTO 27018G31KT 10SM SCT095 21/M03 A2994 RMK AO2 T02141034
KGNT 202115Z AUTO 27011G23KT 10SM BKN095 22/M03 A2994 RMK AO2 T02171029
KGNT 202055Z AUTO 26020G25KT 10SM BKN095 21/M03 A2995 RMK AO2 T02121027
KGNT 202035Z AUTO 23015G22KT 10SM SCT095 22/M02 A2995 RMK AO2 T02201021
KGNT 202015Z AUTO 26013G23KT 230V300 10SM SCT095 21/M02 A2995 RMK AO2 T02101020
KGNT 201955Z AUTO 24011G20KT 210V280 10SM SCT095 21/M02 A2997 RMK AO2 T02061019
KGNT 201935Z AUTO 24013G18KT 10SM CLR 21/00 A2998 RMK AO2 T02061005
KGNT 201915Z AUTO 23010G18KT 10SM CLR 20/M01 A2999 RMK AO2 T02001007
KGNT 201855Z AUTO 24017G22KT 10SM CLR 20/M01 A3000 RMK AO2 T01961007
KGNT 201835Z AUTO 22011G15KT 10SM CLR 20/01 A3001 RMK AO2 T01950011
KGNT 201815Z AUTO 18007KT 130V190 10SM CLR 18/05 A3002 RMK AO2 T01800054
KGNT 201755Z AUTO 14005KT 10SM CLR 18/06 A3003 RMK AO2 T01790060 10180 20036
KGNT 201735Z AUTO 13008G14KT 10SM CLR 17/07 A3004 RMK AO2 T01730067
KGNT 201715Z AUTO 14008KT 10SM CLR 17/07 A3005 RMK AO2 T01670070
KGNT 201655Z AUTO 12008KT 10SM CLR 15/07 A3006 RMK AO2 T01530072
KGNT 201635Z AUTO 12008KT 10SM CLR 15/07 A3007 RMK AO2 T01450068
KGNT 201615Z AUTO 13008KT 10SM CLR 14/07 A3008 RMK AO2 T01390069
KGNT 201555Z AUTO 00000KT 10SM CLR 12/07 A3009 RMK AO2 T01150072
KGNT 201535Z AUTO 00000KT 10SM CLR 09/06 A3009 RMK AO2 T00910062
KGNT 201515Z AUTO 34003KT 10SM CLR 08/06 A3009 RMK AO2 T00840064
KGNT 201455Z AUTO 00000KT 10SM CLR 07/06 A3008 RMK AO2 T00730059
KGNT 201435Z AUTO 00000KT 10SM CLR 05/05 A3007 RMK AO2 T00510045
KGNT 201415Z AUTO 00000KT 10SM CLR 04/03 A3007 RMK AO2 T00380025
KGNT 201355Z AUTO 19004KT 10SM SCT070 05/04 A3007 RMK AO2 T00470042
KGNT 201335Z AUTO 18004KT 10SM BKN070 04/04 A3007 RMK AO2 T00400035
KGNT 201315Z AUTO 18003KT 10SM SCT070 05/04 A3007 RMK AO2 T00460042
KGNT 201255Z AUTO 18006KT 10SM SCT070 05/04 A3007 RMK AO2 T00510043
KGNT 201235Z AUTO 18007KT 10SM SCT065 06/05 A3007 RMK AO2 T00550047
KGNT 201215Z AUTO 00000KT 10SM BKN065 04/03 A3007 RMK AO2 T00380034
KGNT 201155Z AUTO 00000KT 10SM SCT065 04/04 A3008 RMK AO2 70026 T00440040 10071 20028
KGNT 201135Z AUTO 20007KT 10SM CLR 05/05 A3007 RMK AO2 T00500049
KGNT 201115Z AUTO 00000KT 10SM CLR 05/05 A3008 RMK AO2 T00500046
KGNT 201055Z AUTO 18006G14KT 10SM CLR 06/06 A3008 RMK AO2 T00570056
KGNT 201035Z AUTO 18008KT 10SM SCT002 05/05 A3008 RMK AO2 T00500050
KGNT 201015Z AUTO 00000KT 1SM BR BKN002 04/04 A3009 RMK AO2 T00360036
KGNT 200955Z AUTO 00000KT 7SM CLR 03/03 A3009 RMK AO2 T00310029
KGNT 200915Z AUTO 00000KT 10SM CLR 04/04 A3010 RMK AO2 T00430041
KGNT 200855Z AUTO 00000KT 10SM CLR 06/06 A3010 RMK AO2 T00610057
KGNT 200835Z AUTO 00000KT 10SM CLR 06/06 A3010 RMK AO2 T00620057
KGNT 200815Z AUTO 00000KT 10SM CLR 07/06 A3010 RMK AO2 T00690062
KGNT 200755Z AUTO 17004KT 10SM CLR 07/07 A3011 RMK AO2 T00670065
KGNT 200735Z AUTO 12004KT 10SM CLR 06/05 A3012 RMK AO2 T00570054
KGNT 200715Z AUTO 16003KT 10SM CLR 07/06 A3012 RMK AO2 T00650061
KGNT 200655Z AUTO 19004KT 10SM CLR 07/07 A3012 RMK AO2 T00690066 402130033
KGNT 200635Z AUTO 17005KT 10SM CLR 06/06 A3013 RMK AO2 T00620058
KGNT 200615Z AUTO 20003KT 10SM CLR 07/06 A3013 RMK AO2 T00690064
KGNT 200555Z AUTO 00000KT 10SM CLR 06/05 A3013 RMK AO2 T00610053 10110 20061
KGNT 200535Z AUTO 16004KT 10SM CLR 07/06 A3014 RMK AO2 T00700055
KGNT 200515Z AUTO 15005KT 10SM CLR 07/06 A3014 RMK AO2 T00680055
KGNT 200455Z AUTO 17005KT 10SM CLR 08/07 A3015 RMK AO2 T00800066
KGNT 200435Z AUTO 19005KT 10SM CLR 08/06 A3016 RMK AO2 T00770064
KGNT 200415Z AUTO 18004KT 10SM SCT100 08/07 A3016 RMK AO2 T00780066
KGNT 200355Z AUTO 17005KT 10SM SCT100 08/07 A3016 RMK AO2 T00820065
KGNT 200335Z AUTO 18004KT 10SM SCT110 08/07 A3016 RMK AO2 T00800067
KGNT 200315Z AUTO 19006KT 10SM SCT110 08/06 A3015 RMK AO2 T00810064
KGNT 200255Z AUTO 15003KT 10SM SCT110 10/07 A3016 RMK AO2 T00950074
KGNT 200235Z AUTO 00000KT 10SM SCT110 09/07 A3015 RMK AO2 T00890071
KGNT 200215Z AUTO 18004KT 10SM SCT110 09/08 A3015 RMK AO2 T00900075
KGNT 200155Z AUTO 14005KT 10SM SCT110 10/08 A3015 RMK AO2 T00950081
KGNT 200135Z AUTO 14005KT 10SM SCT065 SCT110 10/08 A3015 RMK AO2 LTG DSNT SE T00990081
KGNT 200115Z AUTO 14005KT 10SM BKN065 BKN100 10/09 A3016 RMK AO2 T01040088
KGNT 200055Z AUTO 21007KT 10SM OVC065 11/09 A3017 RMK AO2 LTG DSNT SE T01050089
KGNT 200035Z AUTO 21007KT 10SM OVC070 11/09 A3017 RMK AO2 T01050090
KGNT 200015Z AUTO 15009KT 10SM -VCTSDZ SCT055 OVC070 11/09 A3016 RMK AO2 LTG DSNT SE T01060085
KGNT 192355Z AUTO 12010KT 10SM -TSRA SCT040 BKN060 OVC080 10/08 A3017 RMK AO2 LTG DSNT NE AND E P0026 60026 T00970077 10213 20093
KGNT 192335Z AUTO 14011G22KT 1 1/2SM +TSRA SCT014 BKN041 OVC060 12/05 A3018 RMK AO2 LTG DSNT SE AND S P0025 T01190051
KGNT 192315Z AUTO 15011G14KT 10SM VCTS BKN070 OVC085 16/06 A3016 RMK AO2 LTG DSNT SE AND S T01600061
KGNT 192255Z AUTO 35003KT 10SM OVC085 17/06 A3014 RMK AO2 LTG DSNT SE AND S T01660061
KGNT 192235Z AUTO 36004KT 10SM OVC095 17/06 A3013 RMK AO2 LTG DSNT S T01660058
KGNT 192215Z AUTO 01010KT 10SM OVC095 17/07 A3014 RMK AO2 LTG DSNT S T01680065
KGNT 192155Z AUTO 34011KT 10SM SCT060 SCT070 BKN095 16/07 A3014 RMK AO2 LTG DSNT S T01630068
KGNT 192135Z AUTO 36010G15KT 10SM SCT050 SCT060 OVC095 17/08 A3013 RMK AO2 LTG DSNT SE T01710081
KGNT 192115Z AUTO 31017G29KT 10SM -RA SCT050 SCT065 OVC085 15/07 A3013 RMK AO2 LTG DSNT SE THRU SW T01490074
KGNT 192055Z AUTO 28017G24KT 10SM TS SCT075 BKN090 BKN110 20/01 A3012 RMK AO2 LTG DSNT SE S AND NW T02030014